createdAt,value
2023-05-19T00:00:53.450Z,35.9313
2023-05-19T00:01:55.244Z,35.9617
2023-05-19T00:02:57.081Z,35.9927
2023-05-19T00:03:58.616Z,36.0137
2023-05-19T00:05:00.394Z,36.0209
2023-05-19T00:06:02.161Z,36.0344
2023-05-19T00:07:03.814Z,36.0387
2023-05-19T00:08:05.533Z,36.0369
2023-05-19T00:09:07.275Z,36.0627
2023-05-19T00:10:09.004Z,36.0593
2023-05-19T00:11:10.729Z,36.0388
2023-05-19T00:12:12.420Z,36.0262
2023-05-19T00:13:14.181Z,36.0387
2023-05-19T00:14:15.871Z,36.0537
2023-05-19T00:15:17.618Z,36.0467
2023-05-19T00:16:19.429Z,36.0539
2023-05-19T00:17:21.048Z,36.0587
2023-05-19T00:18:22.861Z,36.0608
2023-05-19T00:19:25.026Z,36.0843
2023-05-19T00:20:26.239Z,36.0884
2023-05-19T00:21:27.974Z,36.1047
2023-05-19T00:22:29.685Z,36.0895
2023-05-19T00:23:31.417Z,36.0820
2023-05-19T00:24:33.152Z,36.1149
2023-05-19T00:25:34.873Z,36.1460
2023-05-19T00:26:36.583Z,36.1600
2023-05-19T00:27:38.349Z,36.1732
2023-05-19T00:28:40.093Z,36.1504
2023-05-19T00:29:41.780Z,36.1440
2023-05-19T00:30:43.518Z,36.1331
2023-05-19T00:31:45.292Z,36.1036
2023-05-19T00:32:46.970Z,36.0973
2023-05-19T00:33:48.705Z,36.0977
2023-05-19T00:34:50.413Z,36.0952
2023-05-19T00:35:52.143Z,36.1251
2023-05-19T00:36:53.849Z,36.1335
2023-05-19T00:37:55.613Z,36.1313
2023-05-19T00:38:57.320Z,36.1483
2023-05-19T00:39:59.043Z,36.1480
2023-05-19T00:41:00.770Z,36.1427
2023-05-19T00:42:02.475Z,36.1424
2023-05-19T00:43:04.204Z,36.1445
2023-05-19T00:44:05.964Z,36.1589
2023-05-19T00:45:07.684Z,36.1711
2023-05-19T00:46:09.412Z,36.1842
2023-05-19T00:47:11.142Z,36.1699
2023-05-19T00:48:12.853Z,36.1480
2023-05-19T00:49:14.570Z,36.1453
2023-05-19T00:50:16.312Z,36.1673
2023-05-19T00:51:18.033Z,36.1916
2023-05-19T00:52:19.740Z,36.2131
2023-05-19T00:53:21.480Z,36.2019
2023-05-19T00:54:23.200Z,36.1907
2023-05-19T00:55:24.930Z,36.2103
2023-05-19T00:56:26.663Z,36.2132
2023-05-19T00:57:28.370Z,36.1882
2023-05-19T00:58:30.119Z,36.2018
2023-05-19T00:59:31.851Z,36.2258
2023-05-19T01:00:33.870Z,36.2403
2023-05-19T01:01:35.381Z,36.2276
2023-05-19T01:02:37.060Z,36.2127
2023-05-19T01:03:38.793Z,36.2124
2023-05-19T01:04:40.470Z,36.2118
2023-05-19T01:05:42.200Z,36.2288
2023-05-19T01:06:43.917Z,36.2524
2023-05-19T01:07:45.650Z,36.2351
2023-05-19T01:08:47.361Z,36.2533
2023-05-19T01:09:49.101Z,36.2748
2023-05-19T01:10:50.825Z,36.2709
2023-05-19T01:11:52.545Z,36.2703
2023-05-19T01:12:54.259Z,36.2675
2023-05-19T01:13:56.015Z,36.2740
2023-05-19T01:14:57.746Z,36.2834
2023-05-19T01:15:59.471Z,36.3058
2023-05-19T01:17:01.189Z,36.3133
2023-05-19T01:18:02.952Z,36.3454
2023-05-19T01:19:04.647Z,36.3504
2023-05-19T01:20:06.427Z,36.3590
2023-05-19T01:21:08.097Z,36.3959
2023-05-19T01:22:09.798Z,36.4392
2023-05-19T01:23:11.528Z,36.4542
2023-05-19T01:24:13.274Z,36.4847
2023-05-19T01:25:15.016Z,36.4884
2023-05-19T01:26:16.724Z,36.4666
2023-05-19T01:27:18.430Z,36.4473
2023-05-19T01:28:20.168Z,36.4522
2023-05-19T01:29:21.873Z,36.4517
2023-05-19T01:30:23.657Z,36.4363
2023-05-19T01:31:25.358Z,36.4341
2023-05-19T01:32:27.135Z,36.4322
2023-05-19T01:33:28.788Z,36.4213
2023-05-19T01:34:30.512Z,36.4482
2023-05-19T01:35:32.226Z,36.4801
2023-05-19T01:36:33.963Z,36.4657
2023-05-19T01:37:35.668Z,36.4334
2023-05-19T01:38:37.423Z,36.3846
2023-05-19T01:39:39.111Z,36.3644
2023-05-19T01:40:40.880Z,36.3688
2023-05-19T01:41:42.602Z,36.3837
2023-05-19T01:42:44.296Z,36.4170
2023-05-19T01:43:46.049Z,36.4289
2023-05-19T01:44:47.767Z,36.4218
2023-05-19T01:45:49.525Z,36.4181
2023-05-19T01:46:51.198Z,36.4241
2023-05-19T01:47:52.970Z,36.4212
2023-05-19T01:48:54.677Z,36.4273
2023-05-19T01:49:56.384Z,36.4421
2023-05-19T01:50:58.145Z,36.4258
2023-05-19T01:51:59.830Z,36.4221
2023-05-19T01:53:01.564Z,36.3901
2023-05-19T01:54:03.317Z,36.3470
2023-05-19T01:55:05.026Z,36.3213
2023-05-19T01:56:06.897Z,36.2820
2023-05-19T01:57:08.490Z,36.2901
2023-05-19T01:58:10.240Z,36.2908
2023-05-19T01:59:11.924Z,36.2642
2023-05-19T02:00:13.671Z,36.2607
2023-05-19T02:01:15.410Z,36.3009
2023-05-19T02:02:17.121Z,36.3081
2023-05-19T02:03:18.820Z,36.2858
2023-05-19T02:04:20.590Z,36.2839
2023-05-19T02:05:22.292Z,36.3049
2023-05-19T02:06:24.048Z,36.3224
2023-05-19T02:07:25.733Z,36.3336
2023-05-19T02:08:27.474Z,36.3256
2023-05-19T02:09:29.189Z,36.3307
2023-05-19T02:10:31.096Z,36.3629
2023-05-19T02:11:32.671Z,36.3881
2023-05-19T02:12:34.350Z,36.3608
2023-05-19T02:13:36.107Z,36.3603
2023-05-19T02:14:37.798Z,36.3766
2023-05-19T02:15:39.587Z,36.4135
2023-05-19T02:16:41.262Z,36.4246
2023-05-19T02:17:42.989Z,36.4566
2023-05-19T02:18:44.710Z,36.4631
2023-05-19T02:19:46.425Z,36.4504
2023-05-19T02:20:48.161Z,36.4398
2023-05-19T02:21:49.899Z,36.4325
2023-05-19T02:22:51.592Z,36.4054
2023-05-19T02:23:53.334Z,36.3524
2023-05-19T02:24:55.034Z,36.3036
2023-05-19T02:25:56.766Z,36.3187
2023-05-19T02:26:58.502Z,36.3770
2023-05-19T02:28:00.213Z,36.3995
2023-05-19T02:29:01.975Z,36.3821
2023-05-19T02:30:03.663Z,36.3773
2023-05-19T02:31:05.405Z,36.3707
2023-05-19T02:32:07.185Z,36.3852
2023-05-19T02:33:08.900Z,36.3988
2023-05-19T02:34:10.564Z,36.4062
2023-05-19T02:35:12.314Z,36.4151
2023-05-19T02:36:14.020Z,36.4095
2023-05-19T02:37:15.782Z,36.3720
2023-05-19T02:38:17.483Z,36.3602
2023-05-19T02:39:19.203Z,36.3458
2023-05-19T02:40:20.930Z,36.3478
2023-05-19T02:41:22.655Z,36.3841
2023-05-19T02:42:24.403Z,36.4315
2023-05-19T02:43:26.102Z,36.4447
2023-05-19T02:44:27.810Z,36.4415
2023-05-19T02:45:29.535Z,36.4377
2023-05-19T02:46:31.324Z,36.4528
2023-05-19T02:47:34.717Z,36.4480
2023-05-19T02:48:34.707Z,36.4505
2023-05-19T02:49:36.487Z,36.4974
2023-05-19T02:50:38.174Z,36.5393
2023-05-19T02:51:39.907Z,36.5679
2023-05-19T02:52:41.610Z,36.5441
2023-05-19T02:53:43.338Z,36.5012
2023-05-19T02:54:45.092Z,36.4918
2023-05-19T02:55:46.785Z,36.5058
2023-05-19T02:56:48.506Z,36.4789
2023-05-19T02:57:50.252Z,36.4708
2023-05-19T02:58:51.958Z,36.4516
2023-05-19T02:59:53.680Z,36.4659
2023-05-19T03:00:55.430Z,36.4588
2023-05-19T03:01:57.188Z,36.4521
2023-05-19T03:02:58.905Z,36.4392
2023-05-19T03:04:00.729Z,36.4404
2023-05-19T03:05:02.319Z,36.4629
2023-05-19T03:06:04.020Z,36.4799
2023-05-19T03:07:05.748Z,36.5477
2023-05-19T03:08:07.495Z,36.5954
2023-05-19T03:09:09.191Z,36.5799
2023-05-19T03:10:10.912Z,36.5663
2023-05-19T03:11:12.652Z,36.5724
2023-05-19T03:12:14.359Z,36.6100
2023-05-19T03:13:16.111Z,36.6162
2023-05-19T03:14:17.821Z,36.6052
2023-05-19T03:15:19.522Z,36.5865
2023-05-19T03:16:21.331Z,36.5345
2023-05-19T03:17:23.062Z,36.5087
2023-05-19T03:18:24.838Z,36.5286
2023-05-19T03:19:26.662Z,36.5456
2023-05-19T03:20:28.145Z,36.5814
2023-05-19T03:21:29.872Z,36.5757
2023-05-19T03:22:31.622Z,36.5622
2023-05-19T03:23:33.345Z,36.5423
2023-05-19T03:24:35.041Z,36.5363
2023-05-19T03:25:36.795Z,36.5249
2023-05-19T03:26:38.496Z,36.5177
2023-05-19T03:27:40.244Z,36.5350
2023-05-19T03:28:41.972Z,36.5729
2023-05-19T03:29:43.688Z,36.5904
2023-05-19T03:30:45.405Z,36.5867
2023-05-19T03:31:47.153Z,36.5666
2023-05-19T03:32:48.985Z,36.5727
2023-05-19T03:33:50.598Z,36.5886
2023-05-19T03:34:52.318Z,36.6075
2023-05-19T03:35:54.032Z,36.6452
2023-05-19T03:36:55.781Z,36.6428
2023-05-19T03:37:57.473Z,36.6108
2023-05-19T03:38:59.196Z,36.6035
2023-05-19T03:40:00.945Z,36.6067
2023-05-19T03:41:02.673Z,36.5868
2023-05-19T03:42:04.399Z,36.5859
2023-05-19T03:43:06.121Z,36.6110
2023-05-19T03:44:07.855Z,36.6185
2023-05-19T03:45:09.561Z,36.6186
2023-05-19T03:46:11.356Z,36.6205
2023-05-19T03:47:13.032Z,36.6423
2023-05-19T03:48:14.749Z,36.6633
2023-05-19T03:49:16.494Z,36.6583
2023-05-19T03:50:18.207Z,36.6504
2023-05-19T03:51:19.915Z,36.6448
2023-05-19T03:52:21.631Z,36.6320
2023-05-19T03:53:23.490Z,36.6281
2023-05-19T03:54:25.217Z,36.6192
2023-05-19T03:55:26.913Z,36.6123
2023-05-19T03:56:28.670Z,36.6029
2023-05-19T03:57:30.380Z,36.6038
2023-05-19T03:58:32.077Z,36.6062
2023-05-19T03:59:33.831Z,36.6109
2023-05-19T04:00:35.773Z,36.6028
2023-05-19T04:01:37.296Z,36.5765
2023-05-19T04:02:39.098Z,36.5682
2023-05-19T04:03:40.809Z,36.5702
2023-05-19T04:04:42.512Z,36.5610
2023-05-19T04:05:44.216Z,36.5493
2023-05-19T04:06:45.930Z,36.6071
2023-05-19T04:07:47.626Z,36.6481
2023-05-19T04:08:49.357Z,36.6527
2023-05-19T04:09:51.088Z,36.6217
2023-05-19T04:10:52.833Z,36.6083
2023-05-19T04:11:54.569Z,36.6450
2023-05-19T04:12:56.264Z,36.6531
2023-05-19T04:13:58.014Z,36.6681
2023-05-19T04:14:59.758Z,36.6852
2023-05-19T04:16:01.481Z,36.7012
2023-05-19T04:17:03.198Z,36.6916
2023-05-19T04:18:04.944Z,36.7091
2023-05-19T04:19:06.719Z,36.7269
2023-05-19T04:20:08.371Z,36.7298
2023-05-19T04:21:10.113Z,36.7254
2023-05-19T04:22:11.810Z,36.7213
2023-05-19T04:23:13.548Z,36.7063
2023-05-19T04:24:15.263Z,36.7188
2023-05-19T04:25:17.058Z,36.7457
2023-05-19T04:26:18.719Z,36.7730
2023-05-19T04:27:20.467Z,36.7994
2023-05-19T04:28:22.184Z,36.8112
2023-05-19T04:29:23.917Z,36.8056
2023-05-19T04:30:25.634Z,36.8102
2023-05-19T04:31:27.353Z,36.8191
2023-05-19T04:32:29.123Z,36.8265
2023-05-19T04:33:30.822Z,36.8231
2023-05-19T04:34:32.559Z,36.8497
2023-05-19T04:35:34.292Z,36.8707
2023-05-19T04:36:35.973Z,36.8841
2023-05-19T04:37:37.694Z,36.8940
2023-05-19T04:38:39.427Z,36.8728
2023-05-19T04:39:41.180Z,36.8740
2023-05-19T04:40:42.911Z,36.9003
2023-05-19T04:41:44.623Z,36.9419
2023-05-19T04:42:46.327Z,36.9539
2023-05-19T04:43:48.080Z,36.9656
2023-05-19T04:44:49.782Z,36.9962
2023-05-19T04:45:51.553Z,37.0253
2023-05-19T04:46:53.306Z,37.0544
2023-05-19T04:47:55.009Z,37.0567
2023-05-19T04:48:56.725Z,37.0318
2023-05-19T04:49:58.411Z,37.0550
2023-05-19T04:51:00.154Z,37.0470
2023-05-19T04:52:01.868Z,37.0492
2023-05-19T04:53:03.622Z,37.0470
2023-05-19T04:54:05.338Z,37.0246
2023-05-19T04:55:07.049Z,37.0064
2023-05-19T04:56:08.783Z,36.9921
2023-05-19T04:57:10.520Z,36.9713
2023-05-19T04:58:12.253Z,36.9949
2023-05-19T04:59:13.972Z,37.0260
2023-05-19T05:00:15.699Z,37.0572
2023-05-19T05:01:17.444Z,37.0562
2023-05-19T05:02:19.224Z,37.0409
2023-05-19T05:03:20.972Z,37.0052
2023-05-19T05:04:22.657Z,36.9786
2023-05-19T05:05:24.337Z,36.9682
2023-05-19T05:06:26.037Z,36.9728
2023-05-19T05:07:28.548Z,36.9792
2023-05-19T05:08:29.483Z,36.9915
2023-05-19T05:09:31.224Z,36.9987
2023-05-19T05:10:33.108Z,36.9728
2023-05-19T05:11:34.682Z,36.9514
2023-05-19T05:12:36.410Z,36.9474
2023-05-19T05:13:38.130Z,36.9532
2023-05-19T05:14:39.828Z,36.9708
2023-05-19T05:15:41.555Z,36.9725
2023-05-19T05:16:43.491Z,36.9729
2023-05-19T05:17:45.056Z,36.9567
2023-05-19T05:18:46.770Z,36.9453
2023-05-19T05:19:48.487Z,36.9576
2023-05-19T05:20:50.214Z,36.9384
2023-05-19T05:21:52.328Z,36.9138
2023-05-19T05:22:53.646Z,36.8877
2023-05-19T05:23:55.373Z,36.8705
2023-05-19T05:24:57.113Z,36.8717
2023-05-19T05:25:58.841Z,36.8667
2023-05-19T05:27:00.602Z,36.8408
2023-05-19T05:28:02.270Z,36.8373
2023-05-19T05:29:03.998Z,36.8374
2023-05-19T05:30:05.714Z,36.8182
2023-05-19T05:31:07.518Z,36.8152
2023-05-19T05:32:09.256Z,36.8246
2023-05-19T05:33:10.955Z,36.8263
2023-05-19T05:34:12.619Z,36.8414
2023-05-19T05:35:14.350Z,36.8564
2023-05-19T05:36:16.096Z,36.8567
2023-05-19T05:37:17.835Z,36.8379
2023-05-19T05:38:19.547Z,36.8145
2023-05-19T05:39:21.266Z,36.8004
2023-05-19T05:40:22.978Z,36.7823
2023-05-19T05:41:24.725Z,36.7772
2023-05-19T05:42:28.932Z,36.7607
2023-05-19T05:43:28.172Z,36.7413
2023-05-19T05:44:29.894Z,36.7513
2023-05-19T05:45:31.913Z,36.7277
2023-05-19T05:46:33.478Z,36.7074
2023-05-19T05:47:35.096Z,36.6952
2023-05-19T05:48:36.793Z,36.6811
2023-05-19T05:49:38.536Z,36.6796
2023-05-19T05:50:40.240Z,36.6818
2023-05-19T05:51:46.417Z,36.6464
2023-05-19T05:52:43.706Z,36.6836
2023-05-19T05:53:45.441Z,36.7444
2023-05-19T05:54:47.144Z,36.7373
2023-05-19T05:55:48.867Z,36.7275
2023-05-19T05:56:50.600Z,36.7293
2023-05-19T05:57:52.350Z,36.7585
2023-05-19T05:58:54.070Z,36.7581
2023-05-19T05:59:55.789Z,36.7373
2023-05-19T06:00:57.500Z,36.7136
2023-05-19T06:01:59.228Z,36.6994
2023-05-19T06:03:01.134Z,36.6954
2023-05-19T06:04:02.706Z,36.6836
2023-05-19T06:05:04.461Z,36.6640
2023-05-19T06:06:06.148Z,36.6430
2023-05-19T06:07:07.889Z,36.6319
2023-05-19T06:08:09.630Z,36.6493
2023-05-19T06:09:11.303Z,36.6761
2023-05-19T06:10:13.051Z,36.6824
2023-05-19T06:11:14.803Z,36.6783
2023-05-19T06:12:16.515Z,36.6423
2023-05-19T06:13:18.261Z,36.6111
2023-05-19T06:14:19.969Z,36.5989
2023-05-19T06:15:21.670Z,36.6133
2023-05-19T06:16:23.444Z,36.6173
2023-05-19T06:17:25.257Z,36.6339
2023-05-19T06:18:26.903Z,36.6538
2023-05-19T06:19:28.707Z,36.6339
2023-05-19T06:20:30.474Z,36.6129
2023-05-19T06:21:32.021Z,36.5647
2023-05-19T06:22:33.769Z,36.5466
2023-05-19T06:23:35.505Z,36.5546
2023-05-19T06:24:39.356Z,36.5624
2023-05-19T06:25:38.948Z,36.5628
2023-05-19T06:26:40.671Z,36.6018
2023-05-19T06:27:42.382Z,36.6033
2023-05-19T06:28:44.111Z,36.5721
2023-05-19T06:29:45.827Z,36.5539
2023-05-19T06:30:47.573Z,36.5819
2023-05-19T06:31:49.398Z,36.6280
2023-05-19T06:32:51.111Z,36.6472
2023-05-19T06:33:52.761Z,36.6708
2023-05-19T06:34:54.485Z,36.6580
2023-05-19T06:35:56.189Z,36.6251
2023-05-19T06:36:57.939Z,36.6238
2023-05-19T06:37:59.671Z,36.6500
2023-05-19T06:39:02.677Z,36.6591
2023-05-19T06:40:03.103Z,36.6631
2023-05-19T06:41:04.832Z,36.6631
2023-05-19T06:42:06.587Z,36.6796
2023-05-19T06:43:08.304Z,36.6932
2023-05-19T06:44:10.069Z,36.7186
2023-05-19T06:45:11.764Z,36.6907
2023-05-19T06:46:13.556Z,36.6605
2023-05-19T06:47:15.243Z,36.6519
2023-05-19T06:48:17.015Z,36.6255
2023-05-19T06:49:18.650Z,36.6253
2023-05-19T06:50:20.404Z,36.6520
2023-05-19T06:51:22.124Z,36.6411
2023-05-19T06:52:23.883Z,36.6123
2023-05-19T06:53:25.565Z,36.5804
2023-05-19T06:54:27.305Z,36.5953
2023-05-19T06:55:29.027Z,36.5986
2023-05-19T06:56:30.780Z,36.6132
2023-05-19T06:57:32.492Z,36.6307
2023-05-19T06:58:34.201Z,36.6350
2023-05-19T06:59:35.936Z,36.6515
2023-05-19T07:00:37.706Z,36.6581
2023-05-19T07:01:39.413Z,36.6662
2023-05-19T07:02:41.187Z,36.6814
2023-05-19T07:03:42.895Z,36.6879
2023-05-19T07:04:44.605Z,36.6948
2023-05-19T07:05:47.167Z,36.7491
2023-05-19T07:06:48.028Z,36.8084
2023-05-19T07:07:49.767Z,36.8146
2023-05-19T07:08:51.485Z,36.8095
2023-05-19T07:09:53.236Z,36.7919
2023-05-19T07:10:54.957Z,36.7761
2023-05-19T07:11:56.685Z,36.7580
2023-05-19T07:12:58.398Z,36.7539
2023-05-19T07:14:00.173Z,36.7240
2023-05-19T07:15:02.037Z,36.7412
2023-05-19T07:16:03.625Z,36.7718
2023-05-19T07:17:05.325Z,36.7693
2023-05-19T07:18:07.075Z,36.7832
2023-05-19T07:19:08.822Z,36.7696
2023-05-19T07:20:10.540Z,36.7284
2023-05-19T07:21:12.215Z,36.7020
2023-05-19T07:22:13.950Z,36.7095
2023-05-19T07:23:17.393Z,36.7403
2023-05-19T07:24:17.429Z,36.7379
2023-05-19T07:25:19.146Z,36.7408
2023-05-19T07:26:20.894Z,36.7201
2023-05-19T07:27:22.618Z,36.6711
2023-05-19T07:28:24.316Z,36.6387
2023-05-19T07:29:26.070Z,36.6026
2023-05-19T07:30:27.811Z,36.6017
2023-05-19T07:31:29.574Z,36.5965
2023-05-19T07:32:31.298Z,36.5933
2023-05-19T07:33:32.965Z,36.5994
2023-05-19T07:34:34.689Z,36.6004
2023-05-19T07:35:36.441Z,36.6007
2023-05-19T07:36:38.158Z,36.5716
2023-05-19T07:37:39.892Z,36.5533
2023-05-19T07:38:41.663Z,36.5340
2023-05-19T07:39:43.326Z,36.5219
2023-05-19T07:40:45.059Z,36.5376
2023-05-19T07:41:46.783Z,36.5353
2023-05-19T07:42:48.505Z,36.5425
2023-05-19T07:43:50.262Z,36.5527
2023-05-19T07:44:51.970Z,36.5734
2023-05-19T07:45:53.781Z,36.5621
2023-05-19T07:46:55.444Z,36.5326
2023-05-19T07:47:57.220Z,36.5090
2023-05-19T07:48:58.926Z,36.5002
2023-05-19T07:50:00.612Z,36.4708
2023-05-19T07:51:02.387Z,36.4571
2023-05-19T07:52:04.069Z,36.4446
2023-05-19T07:53:05.806Z,36.4390
2023-05-19T07:54:07.529Z,36.4529
2023-05-19T07:55:09.265Z,36.4768
2023-05-19T07:56:11.115Z,36.4891
2023-05-19T07:57:12.790Z,36.4669
2023-05-19T07:58:14.504Z,36.4350
2023-05-19T07:59:16.265Z,36.4336
2023-05-19T08:00:17.981Z,36.4362
2023-05-19T08:01:19.846Z,36.4382
2023-05-19T08:02:21.458Z,36.4433
2023-05-19T08:03:23.295Z,36.4780
2023-05-19T08:04:24.897Z,36.4903
2023-05-19T08:05:26.643Z,36.5317
2023-05-19T08:06:28.363Z,36.5751
2023-05-19T08:07:30.048Z,36.6024
2023-05-19T08:08:31.797Z,36.6160
2023-05-19T08:09:33.531Z,36.6257
2023-05-19T08:10:35.400Z,36.6163
2023-05-19T08:11:36.982Z,36.6245
2023-05-19T08:12:38.694Z,36.6590
2023-05-19T08:13:40.406Z,36.6602
2023-05-19T08:14:42.131Z,36.6797
2023-05-19T08:15:43.892Z,36.6914
2023-05-19T08:16:45.607Z,36.7005
2023-05-19T08:17:47.367Z,36.6960
2023-05-19T08:18:49.098Z,36.7084
2023-05-19T08:19:50.790Z,36.6896
2023-05-19T08:20:52.517Z,36.7018
2023-05-19T08:21:54.265Z,36.6976
2023-05-19T08:22:55.978Z,36.6898
2023-05-19T08:23:57.696Z,36.7317
2023-05-19T08:24:59.429Z,36.7479
2023-05-19T08:26:01.156Z,36.7675
2023-05-19T08:27:02.896Z,36.7706
2023-05-19T08:28:04.603Z,36.7757
2023-05-19T08:29:06.318Z,36.8167
2023-05-19T08:30:08.074Z,36.8686
2023-05-19T08:31:09.845Z,36.9129
2023-05-19T08:32:13.185Z,36.9426
2023-05-19T08:33:13.255Z,36.9692
2023-05-19T08:34:14.971Z,37.0073
2023-05-19T08:35:16.671Z,37.0000
2023-05-19T08:36:18.398Z,37.0088
2023-05-19T08:37:20.157Z,37.0137
2023-05-19T08:38:21.873Z,37.0806
2023-05-19T08:39:23.581Z,37.0646
2023-05-19T08:40:25.322Z,37.0608
2023-05-19T08:41:27.024Z,37.0677
2023-05-19T08:42:28.802Z,37.0279
2023-05-19T08:43:30.497Z,36.9730
2023-05-19T08:44:32.221Z,36.9669
2023-05-19T08:45:34.124Z,36.9523
2023-05-19T08:46:35.833Z,36.9218
2023-05-19T08:47:37.433Z,36.8901
2023-05-19T08:48:39.094Z,36.8566
2023-05-19T08:49:40.842Z,36.8467
2023-05-19T08:50:42.559Z,36.8455
2023-05-19T08:51:44.302Z,36.8748
2023-05-19T08:52:49.539Z,36.8781
2023-05-19T08:53:47.742Z,36.9042
2023-05-19T08:54:49.461Z,36.9093
2023-05-19T08:55:51.192Z,36.8733
2023-05-19T08:56:52.888Z,36.8427
2023-05-19T08:57:54.642Z,36.8811
2023-05-19T08:58:56.364Z,36.8830
2023-05-19T08:59:58.076Z,36.8803
2023-05-19T09:00:59.876Z,36.8895
2023-05-19T09:02:01.513Z,36.8679
2023-05-19T09:04:05.023Z,36.9514
2023-05-19T09:05:06.715Z,36.9852
2023-05-19T09:06:08.557Z,36.9838
2023-05-19T09:07:10.135Z,36.9537
2023-05-19T09:08:11.870Z,36.9620
2023-05-19T09:09:13.620Z,36.9635
2023-05-19T09:10:15.335Z,36.9707
2023-05-19T09:11:17.039Z,36.9849
2023-05-19T09:12:18.781Z,36.9841
2023-05-19T09:13:20.519Z,36.9669
2023-05-19T09:14:22.234Z,36.9674
2023-05-19T09:15:23.945Z,36.9622
2023-05-19T09:16:27.811Z,36.9837
2023-05-19T09:17:27.412Z,37.0048
2023-05-19T09:18:29.189Z,37.0419
2023-05-19T09:19:30.989Z,37.0642
2023-05-19T09:20:32.586Z,37.0778
2023-05-19T09:21:34.302Z,37.0660
2023-05-19T09:22:36.048Z,37.0617
2023-05-19T09:23:37.785Z,37.0517
2023-05-19T09:24:39.481Z,37.0405
2023-05-19T09:25:41.230Z,37.0747
2023-05-19T09:26:42.974Z,37.1207
2023-05-19T09:27:44.691Z,37.1347
2023-05-19T09:28:46.402Z,37.1472
2023-05-19T09:29:48.119Z,37.1358
2023-05-19T09:30:49.849Z,37.1109
2023-05-19T09:31:51.788Z,37.0882
2023-05-19T09:32:53.380Z,37.0617
2023-05-19T09:33:55.091Z,37.0497
2023-05-19T09:34:56.753Z,37.0504
2023-05-19T09:35:58.501Z,37.0807
2023-05-19T09:37:00.230Z,37.0828
2023-05-19T09:38:01.986Z,37.0726
2023-05-19T09:39:03.701Z,37.0878
2023-05-19T09:40:05.399Z,37.0922
2023-05-19T09:41:07.188Z,37.1305
2023-05-19T09:42:08.853Z,37.1713
2023-05-19T09:43:10.584Z,37.1712
2023-05-19T09:44:12.323Z,37.1352
2023-05-19T09:45:14.069Z,37.1129
2023-05-19T09:46:15.838Z,37.0791
2023-05-19T09:47:17.505Z,37.0514
2023-05-19T09:48:19.217Z,37.0547
2023-05-19T09:49:20.992Z,37.0960
2023-05-19T09:50:22.691Z,37.1245
2023-05-19T09:51:24.422Z,37.1378
2023-05-19T09:52:26.154Z,37.1590
2023-05-19T09:53:27.865Z,37.1604
2023-05-19T09:54:29.722Z,37.1630
2023-05-19T09:55:31.449Z,37.1699
2023-05-19T09:56:33.061Z,37.1913
2023-05-19T09:57:34.801Z,37.2239
2023-05-19T09:58:36.771Z,37.2407
2023-05-19T09:59:38.264Z,37.2708
2023-05-19T10:00:39.986Z,37.2850
2023-05-19T10:01:41.722Z,37.3007
2023-05-19T10:02:43.435Z,37.3214
2023-05-19T10:03:45.164Z,37.3346
2023-05-19T10:04:47.327Z,37.3796
2023-05-19T10:05:48.643Z,37.4602
2023-05-19T10:06:50.329Z,37.4689
2023-05-19T10:07:52.060Z,37.4378
2023-05-19T10:08:53.789Z,37.4221
2023-05-19T10:09:56.604Z,37.4257
2023-05-19T10:10:57.264Z,37.4641
2023-05-19T10:11:59.004Z,37.4564
2023-05-19T10:13:00.694Z,37.4285
2023-05-19T10:14:02.424Z,37.4005
2023-05-19T10:15:04.183Z,37.3795
2023-05-19T10:16:05.953Z,37.3611
2023-05-19T10:17:07.765Z,37.3595
2023-05-19T10:18:09.389Z,37.3729
2023-05-19T10:19:11.100Z,37.3911
2023-05-19T10:20:12.844Z,37.4328
2023-05-19T10:21:14.506Z,37.4197
2023-05-19T10:22:16.230Z,37.4238
2023-05-19T10:23:17.989Z,37.4522
2023-05-19T10:24:19.702Z,37.4770
2023-05-19T10:25:21.454Z,37.4889
2023-05-19T10:26:23.135Z,37.5033
2023-05-19T10:27:24.874Z,37.5497
2023-05-19T10:28:26.642Z,37.6078
2023-05-19T10:29:28.383Z,37.6148
2023-05-19T10:30:30.092Z,37.5972
2023-05-19T10:31:31.860Z,37.6179
2023-05-19T10:32:33.622Z,37.6525
2023-05-19T10:33:35.257Z,37.6493
2023-05-19T10:34:36.968Z,37.6431
2023-05-19T10:35:38.917Z,37.6658
2023-05-19T10:36:40.406Z,37.6790
2023-05-19T10:37:42.156Z,37.6529
2023-05-19T10:38:43.877Z,37.6482
2023-05-19T10:39:45.596Z,37.6625
2023-05-19T10:40:47.334Z,37.6872
2023-05-19T10:41:49.038Z,37.7145
2023-05-19T10:42:50.778Z,37.7069
2023-05-19T10:43:52.501Z,37.6872
2023-05-19T10:44:54.229Z,37.6813
2023-05-19T10:45:55.936Z,37.6847
2023-05-19T10:46:57.714Z,37.6976
2023-05-19T10:47:59.495Z,37.7119
2023-05-19T10:49:01.137Z,37.7180
2023-05-19T10:50:02.872Z,37.7300
2023-05-19T10:51:04.607Z,37.6885
2023-05-19T10:52:06.303Z,37.6646
2023-05-19T10:53:08.036Z,37.6743
2023-05-19T10:54:10.992Z,37.6600
2023-05-19T10:55:11.504Z,37.6653
2023-05-19T10:56:13.235Z,37.6805
2023-05-19T10:57:14.919Z,37.6477
2023-05-19T10:58:16.656Z,37.6397
2023-05-19T10:59:18.376Z,37.6387
2023-05-19T11:00:20.123Z,37.6584
2023-05-19T11:01:21.866Z,37.6669
2023-05-19T11:02:23.640Z,37.6636
2023-05-19T11:03:25.262Z,37.6896
2023-05-19T11:04:27.163Z,37.6640
2023-05-19T11:05:28.729Z,37.6250
2023-05-19T11:06:30.486Z,37.6295
2023-05-19T11:07:32.203Z,37.6722
2023-05-19T11:08:33.926Z,37.6984
2023-05-19T11:09:40.275Z,37.6766
2023-05-19T11:12:38.933Z,37.5463
2023-05-19T11:13:40.575Z,37.5657
2023-05-19T11:14:42.276Z,37.5853
2023-05-19T11:15:44.081Z,37.6162
2023-05-19T11:16:46.723Z,37.6625
2023-05-19T11:17:47.526Z,37.6912
2023-05-19T11:18:49.253Z,37.7248
2023-05-19T11:19:50.928Z,37.7508
2023-05-19T11:20:52.757Z,37.7861
2023-05-19T11:21:54.401Z,37.8186
2023-05-19T11:22:56.192Z,37.8224
2023-05-19T11:23:57.963Z,37.8406
2023-05-19T11:24:59.565Z,37.8670
2023-05-19T11:26:01.293Z,37.8990
2023-05-19T11:27:03.133Z,37.9206
2023-05-19T11:28:04.779Z,37.9317
2023-05-19T11:29:06.474Z,37.9505
2023-05-19T11:30:08.254Z,37.9433
2023-05-19T11:31:09.953Z,37.9063
2023-05-19T11:32:11.755Z,37.9074
2023-05-19T11:33:13.483Z,37.8959
2023-05-19T11:34:15.112Z,37.9147
2023-05-19T11:35:16.842Z,37.9703
2023-05-19T11:36:18.612Z,38.0043
2023-05-19T11:37:20.302Z,37.9871
2023-05-19T11:38:22.130Z,37.9344
2023-05-19T11:39:23.782Z,37.9212
2023-05-19T11:40:25.520Z,37.9144
2023-05-19T11:41:27.243Z,37.8988
2023-05-19T11:42:28.966Z,37.8780
2023-05-19T11:43:30.712Z,37.8563
2023-05-19T11:44:32.522Z,37.8535
2023-05-19T11:45:34.416Z,37.8787
2023-05-19T11:46:35.969Z,37.8935
2023-05-19T11:47:50.852Z,37.9558
2023-05-19T11:48:39.368Z,37.9625
2023-05-19T11:49:41.053Z,37.9391
2023-05-19T11:50:42.856Z,37.9584
2023-05-19T11:51:44.500Z,37.9958
2023-05-19T11:52:46.252Z,38.0151
2023-05-19T11:53:47.980Z,38.0124
2023-05-19T11:54:49.716Z,38.0618
2023-05-19T11:55:52.024Z,38.0885
2023-05-19T11:56:53.258Z,38.0763
2023-05-19T11:58:02.768Z,38.0741
2023-05-19T11:58:56.647Z,38.0860
2023-05-19T11:59:58.376Z,38.0711
2023-05-19T12:01:00.121Z,38.0547
2023-05-19T12:02:01.808Z,38.0360
2023-05-19T12:03:03.674Z,38.0173
2023-05-19T12:04:05.413Z,38.0649
2023-05-19T12:05:07.057Z,38.0656
2023-05-19T12:06:08.755Z,38.0366
2023-05-19T12:07:10.470Z,38.0346
2023-05-19T12:08:12.277Z,38.0288
2023-05-19T12:09:14.028Z,38.0187
2023-05-19T12:10:15.642Z,37.9779
2023-05-19T12:11:18.216Z,37.9528
2023-05-19T12:14:16.080Z,37.9505
2023-05-19T12:15:17.704Z,38.0115
2023-05-19T12:16:19.455Z,38.1080
2023-05-19T12:17:21.271Z,38.1745
2023-05-19T12:18:22.917Z,38.1870
2023-05-19T12:19:24.693Z,38.1850
2023-05-19T12:20:26.372Z,38.1921
2023-05-19T12:21:34.011Z,38.1877
2023-05-19T12:24:31.372Z,38.2638
2023-05-19T12:25:33.186Z,38.2839
2023-05-19T12:26:34.706Z,38.2741
2023-05-19T12:27:36.513Z,38.2659
2023-05-19T12:28:38.167Z,38.2759
2023-05-19T12:29:39.884Z,38.3363
2023-05-19T12:30:41.638Z,38.3859
2023-05-19T12:31:43.431Z,38.4218
2023-05-19T12:32:45.225Z,38.4148
2023-05-19T12:33:46.830Z,38.4201